sensor_id;sensor_type;location;lat;lon;timestamp;P1;durP1;ratioP1;P2;durP2;ratioP2
32824;SDS011;51060;42.640;24.356;2023-10-31T00:01:34;30.03;;;17.30;;
32824;SDS011;51060;42.640;24.356;2023-10-31T00:04:00;33.53;;;19.27;;
32824;SDS011;51060;42.640;24.356;2023-10-31T00:06:25;36.40;;;18.50;;
32824;SDS011;51060;42.640;24.356;2023-10-31T00:08:51;34.80;;;15.20;;
32824;SDS011;51060;42.640;24.356;2023-10-31T00:11:17;23.00;;;14.57;;
32824;SDS011;51060;42.640;24.356;2023-10-31T00:13:42;22.30;;;12.13;;
32824;SDS011;51060;42.640;24.356;2023-10-31T00:16:08;18.23;;;11.17;;
32824;SDS011;51060;42.640;24.356;2023-10-31T00:18:34;25.53;;;12.07;;
32824;SDS011;51060;42.640;24.356;2023-10-31T00:20:59;55.60;;;13.57;;
32824;SDS011;51060;42.640;24.356;2023-10-31T00:23:25;57.90;;;15.87;;
32824;SDS011;51060;42.640;24.356;2023-10-31T00:25:51;76.40;;;18.70;;
32824;SDS011;51060;42.640;24.356;2023-10-31T00:28:17;30.20;;;13.87;;
32824;SDS011;51060;42.640;24.356;2023-10-31T00:30:42;25.80;;;12.40;;
32824;SDS011;51060;42.640;24.356;2023-10-31T00:33:08;28.47;;;12.13;;
32824;SDS011;51060;42.640;24.356;2023-10-31T00:35:33;26.77;;;13.07;;
32824;SDS011;51060;42.640;24.356;2023-10-31T00:37:59;36.97;;;13.87;;
32824;SDS011;51060;42.640;24.356;2023-10-31T00:40:25;51.40;;;15.30;;
32824;SDS011;51060;42.640;24.356;2023-10-31T00:42:51;43.57;;;13.57;;
32824;SDS011;51060;42.640;24.356;2023-10-31T00:45:17;36.93;;;13.17;;
32824;SDS011;51060;42.640;24.356;2023-10-31T00:47:43;28.17;;;11.43;;
32824;SDS011;51060;42.640;24.356;2023-10-31T00:50:08;24.97;;;10.43;;
32824;SDS011;51060;42.640;24.356;2023-10-31T00:52:34;15.70;;;9.50;;
32824;SDS011;51060;42.640;24.356;2023-10-31T00:55:00;30.17;;;9.83;;
32824;SDS011;51060;42.640;24.356;2023-10-31T00:57:25;18.73;;;10.83;;
32824;SDS011;51060;42.640;24.356;2023-10-31T00:59:51;22.50;;;11.50;;
32824;SDS011;51060;42.640;24.356;2023-10-31T01:02:16;21.03;;;12.27;;
32824;SDS011;51060;42.640;24.356;2023-10-31T01:04:42;31.33;;;12.53;;
32824;SDS011;51060;42.640;24.356;2023-10-31T01:07:08;23.00;;;11.40;;
32824;SDS011;51060;42.640;24.356;2023-10-31T01:09:37;28.87;;;12.93;;
32824;SDS011;51060;42.640;24.356;2023-10-31T01:12:03;29.80;;;13.73;;
32824;SDS011;51060;42.640;24.356;2023-10-31T01:14:29;33.13;;;14.90;;
32824;SDS011;51060;42.640;24.356;2023-10-31T01:16:54;23.77;;;13.80;;
32824;SDS011;51060;42.640;24.356;2023-10-31T01:19:20;26.43;;;13.00;;
32824;SDS011;51060;42.640;24.356;2023-10-31T01:21:45;27.37;;;12.17;;
32824;SDS011;51060;42.640;24.356;2023-10-31T01:24:11;28.67;;;10.90;;
32824;SDS011;51060;42.640;24.356;2023-10-31T01:26:37;33.60;;;9.93;;
32824;SDS011;51060;42.640;24.356;2023-10-31T01:29:02;17.43;;;9.97;;
32824;SDS011;51060;42.640;24.356;2023-10-31T01:31:28;23.37;;;11.13;;
32824;SDS011;51060;42.640;24.356;2023-10-31T01:33:53;25.60;;;12.77;;
32824;SDS011;51060;42.640;24.356;2023-10-31T01:36:19;27.10;;;10.00;;
32824;SDS011;51060;42.640;24.356;2023-10-31T01:38:44;16.00;;;8.73;;
32824;SDS011;51060;42.640;24.356;2023-10-31T01:41:11;25.63;;;9.57;;
32824;SDS011;51060;42.640;24.356;2023-10-31T01:43:37;19.53;;;9.17;;
32824;SDS011;51060;42.640;24.356;2023-10-31T01:46:03;24.33;;;8.50;;
32824;SDS011;51060;42.640;24.356;2023-10-31T01:48:30;23.70;;;8.80;;
32824;SDS011;51060;42.640;24.356;2023-10-31T01:50:56;15.97;;;8.10;;
32824;SDS011;51060;42.640;24.356;2023-10-31T01:53:22;39.23;;;8.20;;
32824;SDS011;51060;42.640;24.356;2023-10-31T01:55:49;33.90;;;8.40;;
32824;SDS011;51060;42.640;24.356;2023-10-31T01:58:15;23.17;;;7.20;;
32824;SDS011;51060;42.640;24.356;2023-10-31T02:00:41;21.63;;;8.57;;
32824;SDS011;51060;42.640;24.356;2023-10-31T02:03:07;31.63;;;7.10;;
32824;SDS011;51060;42.640;24.356;2023-10-31T02:05:34;14.23;;;7.33;;
32824;SDS011;51060;42.640;24.356;2023-10-31T02:08:00;17.87;;;6.13;;
32824;SDS011;51060;42.640;24.356;2023-10-31T02:10:26;12.33;;;7.00;;
32824;SDS011;51060;42.640;24.356;2023-10-31T02:12:52;16.80;;;7.13;;
32824;SDS011;51060;42.640;24.356;2023-10-31T02:15:17;17.20;;;7.53;;
32824;SDS011;51060;42.640;24.356;2023-10-31T02:17:43;18.00;;;7.30;;
32824;SDS011;51060;42.640;24.356;2023-10-31T02:20:09;21.13;;;8.37;;
32824;SDS011;51060;42.640;24.356;2023-10-31T02:22:35;24.67;;;9.30;;
32824;SDS011;51060;42.640;24.356;2023-10-31T02:25:00;31.10;;;10.83;;
32824;SDS011;51060;42.640;24.356;2023-10-31T02:27:26;30.07;;;10.07;;
32824;SDS011;51060;42.640;24.356;2023-10-31T02:29:52;25.63;;;10.40;;
32824;SDS011;51060;42.640;24.356;2023-10-31T02:32:17;28.47;;;10.00;;
32824;SDS011;51060;42.640;24.356;2023-10-31T02:34:44;34.70;;;10.90;;
32824;SDS011;51060;42.640;24.356;2023-10-31T02:37:10;37.27;;;11.47;;
32824;SDS011;51060;42.640;24.356;2023-10-31T02:39:36;29.17;;;10.43;;
32824;SDS011;51060;42.640;24.356;2023-10-31T02:42:02;26.10;;;9.83;;
32824;SDS011;51060;42.640;24.356;2023-10-31T02:44:28;26.63;;;8.80;;
32824;SDS011;51060;42.640;24.356;2023-10-31T02:46:54;22.27;;;8.00;;
32824;SDS011;51060;42.640;24.356;2023-10-31T02:49:20;26.13;;;9.60;;
32824;SDS011;51060;42.640;24.356;2023-10-31T02:51:46;35.20;;;10.53;;
32824;SDS011;51060;42.640;24.356;2023-10-31T02:54:12;22.77;;;8.83;;
32824;SDS011;51060;42.640;24.356;2023-10-31T02:56:38;17.43;;;10.03;;
32824;SDS011;51060;42.640;24.356;2023-10-31T02:59:04;16.23;;;9.73;;
32824;SDS011;51060;42.640;24.356;2023-10-31T03:01:29;15.73;;;9.57;;
32824;SDS011;51060;42.640;24.356;2023-10-31T03:03:55;15.27;;;8.70;;
32824;SDS011;51060;42.640;24.356;2023-10-31T03:06:21;16.97;;;8.63;;
32824;SDS011;51060;42.640;24.356;2023-10-31T03:08:47;20.07;;;8.67;;
32824;SDS011;51060;42.640;24.356;2023-10-31T03:11:24;22.97;;;8.20;;
32824;SDS011;51060;42.640;24.356;2023-10-31T03:13:50;18.80;;;8.10;;
32824;SDS011;51060;42.640;24.356;2023-10-31T03:16:16;28.70;;;8.50;;
32824;SDS011;51060;42.640;24.356;2023-10-31T03:18:42;20.57;;;8.47;;
32824;SDS011;51060;42.640;24.356;2023-10-31T03:21:07;18.00;;;8.07;;
32824;SDS011;51060;42.640;24.356;2023-10-31T03:23:33;21.33;;;8.43;;
32824;SDS011;51060;42.640;24.356;2023-10-31T03:25:58;27.87;;;8.33;;
32824;SDS011;51060;42.640;24.356;2023-10-31T03:28:24;21.20;;;9.90;;
32824;SDS011;51060;42.640;24.356;2023-10-31T03:30:50;16.73;;;10.77;;
32824;SDS011;51060;42.640;24.356;2023-10-31T03:33:16;24.50;;;12.77;;
32824;SDS011;51060;42.640;24.356;2023-10-31T03:35:43;23.73;;;13.93;;
32824;SDS011;51060;42.640;24.356;2023-10-31T03:38:09;23.53;;;14.33;;
32824;SDS011;51060;42.640;24.356;2023-10-31T03:40:34;18.73;;;10.13;;
32824;SDS011;51060;42.640;24.356;2023-10-31T03:43:00;17.07;;;9.90;;
32824;SDS011;51060;42.640;24.356;2023-10-31T03:45:26;15.00;;;7.47;;
32824;SDS011;51060;42.640;24.356;2023-10-31T03:47:51;14.77;;;8.03;;
32824;SDS011;51060;42.640;24.356;2023-10-31T03:50:17;17.60;;;8.33;;
32824;SDS011;51060;42.640;24.356;2023-10-31T03:52:42;14.10;;;8.10;;
32824;SDS011;51060;42.640;24.356;2023-10-31T03:55:08;13.83;;;9.17;;
32824;SDS011;51060;42.640;24.356;2023-10-31T03:57:33;20.30;;;10.07;;
32824;SDS011;51060;42.640;24.356;2023-10-31T03:59:59;26.33;;;11.30;;
32824;SDS011;51060;42.640;24.356;2023-10-31T04:02:25;37.10;;;12.43;;
32824;SDS011;51060;42.640;24.356;2023-10-31T04:04:50;19.13;;;9.37;;
32824;SDS011;51060;42.640;24.356;2023-10-31T04:07:16;14.23;;;8.93;;
32824;SDS011;51060;42.640;24.356;2023-10-31T04:09:42;25.40;;;10.67;;
32824;SDS011;51060;42.640;24.356;2023-10-31T04:12:08;19.63;;;10.30;;
32824;SDS011;51060;42.640;24.356;2023-10-31T04:14:34;20.37;;;9.80;;
32824;SDS011;51060;42.640;24.356;2023-10-31T04:16:59;14.40;;;9.27;;
32824;SDS011;51060;42.640;24.356;2023-10-31T04:19:25;34.90;;;17.83;;
32824;SDS011;51060;42.640;24.356;2023-10-31T04:21:52;38.00;;;20.40;;
32824;SDS011;51060;42.640;24.356;2023-10-31T04:24:18;29.57;;;18.87;;
32824;SDS011;51060;42.640;24.356;2023-10-31T04:26:44;39.40;;;24.33;;
32824;SDS011;51060;42.640;24.356;2023-10-31T04:29:10;49.20;;;27.43;;
32824;SDS011;51060;42.640;24.356;2023-10-31T04:31:35;44.90;;;28.97;;
32824;SDS011;51060;42.640;24.356;2023-10-31T04:34:01;50.40;;;20.57;;
32824;SDS011;51060;42.640;24.356;2023-10-31T04:36:26;32.53;;;16.73;;
32824;SDS011;51060;42.640;24.356;2023-10-31T04:38:52;42.87;;;16.47;;
32824;SDS011;51060;42.640;24.356;2023-10-31T04:41:18;27.70;;;15.00;;
32824;SDS011;51060;42.640;24.356;2023-10-31T04:43:43;45.43;;;16.40;;
32824;SDS011;51060;42.640;24.356;2023-10-31T04:46:09;32.40;;;13.10;;
32824;SDS011;51060;42.640;24.356;2023-10-31T04:48:35;28.60;;;13.57;;
32824;SDS011;51060;42.640;24.356;2023-10-31T04:51:00;40.10;;;23.40;;
32824;SDS011;51060;42.640;24.356;2023-10-31T04:53:26;48.83;;;28.50;;
32824;SDS011;51060;42.640;24.356;2023-10-31T04:55:52;60.57;;;32.33;;
32824;SDS011;51060;42.640;24.356;2023-10-31T04:58:17;62.63;;;30.57;;
32824;SDS011;51060;42.640;24.356;2023-10-31T05:00:43;58.87;;;30.17;;
32824;SDS011;51060;42.640;24.356;2023-10-31T05:03:09;55.03;;;31.93;;
32824;SDS011;51060;42.640;24.356;2023-10-31T05:05:34;51.40;;;30.60;;
32824;SDS011;51060;42.640;24.356;2023-10-31T05:08:00;76.10;;;38.17;;
32824;SDS011;51060;42.640;24.356;2023-10-31T05:10:25;105.07;;;41.30;;
32824;SDS011;51060;42.640;24.356;2023-10-31T05:12:51;57.50;;;33.50;;
32824;SDS011;51060;42.640;24.356;2023-10-31T05:15:17;56.07;;;30.63;;
32824;SDS011;51060;42.640;24.356;2023-10-31T05:17:42;48.30;;;26.30;;
32824;SDS011;51060;42.640;24.356;2023-10-31T05:20:08;43.03;;;25.90;;
32824;SDS011;51060;42.640;24.356;2023-10-31T05:22:35;37.27;;;28.33;;
32824;SDS011;51060;42.640;24.356;2023-10-31T05:25:01;38.70;;;28.40;;
32824;SDS011;51060;42.640;24.356;2023-10-31T05:27:28;49.17;;;33.20;;
32824;SDS011;51060;42.640;24.356;2023-10-31T05:29:54;68.23;;;47.27;;
32824;SDS011;51060;42.640;24.356;2023-10-31T05:32:20;67.70;;;44.10;;
32824;SDS011;51060;42.640;24.356;2023-10-31T05:34:45;69.00;;;45.50;;
32824;SDS011;51060;42.640;24.356;2023-10-31T05:37:11;71.13;;;48.93;;
32824;SDS011;51060;42.640;24.356;2023-10-31T05:39:36;82.60;;;55.10;;
32824;SDS011;51060;42.640;24.356;2023-10-31T05:42:02;76.17;;;53.67;;
32824;SDS011;51060;42.640;24.356;2023-10-31T05:44:28;60.53;;;44.10;;
32824;SDS011;51060;42.640;24.356;2023-10-31T05:46:54;57.30;;;39.33;;
32824;SDS011;51060;42.640;24.356;2023-10-31T05:49:20;49.40;;;34.63;;
32824;SDS011;51060;42.640;24.356;2023-10-31T05:51:51;44.87;;;28.40;;
32824;SDS011;51060;42.640;24.356;2023-10-31T05:54:17;36.73;;;26.37;;
32824;SDS011;51060;42.640;24.356;2023-10-31T05:56:43;45.33;;;29.70;;
32824;SDS011;51060;42.640;24.356;2023-10-31T05:59:10;40.47;;;28.60;;
32824;SDS011;51060;42.640;24.356;2023-10-31T06:01:36;34.53;;;23.00;;
32824;SDS011;51060;42.640;24.356;2023-10-31T06:04:02;31.73;;;21.40;;
32824;SDS011;51060;42.640;24.356;2023-10-31T06:06:30;30.67;;;21.50;;
32824;SDS011;51060;42.640;24.356;2023-10-31T06:08:59;27.30;;;19.90;;
32824;SDS011;51060;42.640;24.356;2023-10-31T06:11:25;42.77;;;29.13;;
32824;SDS011;51060;42.640;24.356;2023-10-31T06:13:50;46.93;;;29.80;;
32824;SDS011;51060;42.640;24.356;2023-10-31T06:16:16;67.00;;;43.67;;
32824;SDS011;51060;42.640;24.356;2023-10-31T06:18:41;69.70;;;46.77;;
32824;SDS011;51060;42.640;24.356;2023-10-31T06:21:07;64.33;;;44.67;;
32824;SDS011;51060;42.640;24.356;2023-10-31T06:23:36;55.40;;;42.23;;
32824;SDS011;51060;42.640;24.356;2023-10-31T06:26:03;43.63;;;35.07;;
32824;SDS011;51060;42.640;24.356;2023-10-31T06:28:29;39.87;;;33.37;;
32824;SDS011;51060;42.640;24.356;2023-10-31T06:30:55;39.57;;;29.93;;
32824;SDS011;51060;42.640;24.356;2023-10-31T06:33:20;34.93;;;29.80;;
32824;SDS011;51060;42.640;24.356;2023-10-31T06:35:46;46.47;;;36.87;;
32824;SDS011;51060;42.640;24.356;2023-10-31T06:38:12;57.40;;;42.93;;
32824;SDS011;51060;42.640;24.356;2023-10-31T06:40:38;53.10;;;40.17;;
32824;SDS011;51060;42.640;24.356;2023-10-31T06:43:03;56.07;;;40.73;;
32824;SDS011;51060;42.640;24.356;2023-10-31T06:45:29;52.97;;;42.37;;
32824;SDS011;51060;42.640;24.356;2023-10-31T06:47:55;52.20;;;40.80;;
32824;SDS011;51060;42.640;24.356;2023-10-31T06:50:20;52.13;;;44.03;;
32824;SDS011;51060;42.640;24.356;2023-10-31T06:52:46;62.47;;;52.77;;
32824;SDS011;51060;42.640;24.356;2023-10-31T06:55:12;69.97;;;54.93;;
32824;SDS011;51060;42.640;24.356;2023-10-31T06:57:38;75.47;;;59.20;;
32824;SDS011;51060;42.640;24.356;2023-10-31T07:00:04;45.83;;;37.73;;
32824;SDS011;51060;42.640;24.356;2023-10-31T07:02:33;43.43;;;35.83;;
32824;SDS011;51060;42.640;24.356;2023-10-31T07:04:59;49.87;;;39.17;;
32824;SDS011;51060;42.640;24.356;2023-10-31T07:07:24;48.30;;;36.97;;
32824;SDS011;51060;42.640;24.356;2023-10-31T07:09:50;53.07;;;43.13;;
32824;SDS011;51060;42.640;24.356;2023-10-31T07:12:15;61.63;;;51.23;;
32824;SDS011;51060;42.640;24.356;2023-10-31T07:14:41;54.67;;;45.00;;
32824;SDS011;51060;42.640;24.356;2023-10-31T07:17:06;50.87;;;41.37;;
32824;SDS011;51060;42.640;24.356;2023-10-31T07:19:32;50.27;;;38.73;;
32824;SDS011;51060;42.640;24.356;2023-10-31T07:21:58;40.40;;;33.20;;
32824;SDS011;51060;42.640;24.356;2023-10-31T07:24:23;30.70;;;26.93;;
32824;SDS011;51060;42.640;24.356;2023-10-31T07:26:51;32.67;;;26.20;;
32824;SDS011;51060;42.640;24.356;2023-10-31T07:29:17;43.93;;;34.00;;
32824;SDS011;51060;42.640;24.356;2023-10-31T07:31:43;32.53;;;27.40;;
32824;SDS011;51060;42.640;24.356;2023-10-31T07:34:09;30.25;;;27.02;;
32824;SDS011;51060;42.640;24.356;2023-10-31T07:36:36;38.30;;;30.67;;
32824;SDS011;51060;42.640;24.356;2023-10-31T07:39:02;25.53;;;22.17;;
32824;SDS011;51060;42.640;24.356;2023-10-31T07:41:29;24.65;;;20.02;;
32824;SDS011;51060;42.640;24.356;2023-10-31T07:43:55;24.50;;;19.58;;
32824;SDS011;51060;42.640;24.356;2023-10-31T07:46:20;20.33;;;16.05;;
32824;SDS011;51060;42.640;24.356;2023-10-31T07:48:46;14.82;;;12.27;;
32824;SDS011;51060;42.640;24.356;2023-10-31T07:51:12;17.33;;;12.10;;
32824;SDS011;51060;42.640;24.356;2023-10-31T07:53:37;19.58;;;13.75;;
32824;SDS011;51060;42.640;24.356;2023-10-31T07:56:03;17.02;;;12.50;;
32824;SDS011;51060;42.640;24.356;2023-10-31T07:58:29;18.15;;;14.32;;
32824;SDS011;51060;42.640;24.356;2023-10-31T08:00:55;21.55;;;15.45;;
32824;SDS011;51060;42.640;24.356;2023-10-31T08:03:21;22.05;;;14.77;;
32824;SDS011;51060;42.640;24.356;2023-10-31T08:05:47;19.00;;;14.45;;
32824;SDS011;51060;42.640;24.356;2023-10-31T08:08:12;20.48;;;16.17;;
32824;SDS011;51060;42.640;24.356;2023-10-31T08:10:38;30.20;;;20.33;;
32824;SDS011;51060;42.640;24.356;2023-10-31T08:13:04;49.45;;;31.20;;
32824;SDS011;51060;42.640;24.356;2023-10-31T08:15:30;47.20;;;31.38;;
32824;SDS011;51060;42.640;24.356;2023-10-31T08:17:55;26.23;;;17.58;;
32824;SDS011;51060;42.640;24.356;2023-10-31T08:20:21;18.20;;;12.52;;
32824;SDS011;51060;42.640;24.356;2023-10-31T08:22:46;15.95;;;11.25;;
32824;SDS011;51060;42.640;24.356;2023-10-31T08:25:12;16.52;;;10.65;;
32824;SDS011;51060;42.640;24.356;2023-10-31T08:27:37;9.30;;;7.40;;
32824;SDS011;51060;42.640;24.356;2023-10-31T08:30:03;7.85;;;5.75;;
32824;SDS011;51060;42.640;24.356;2023-10-31T08:32:29;8.73;;;6.00;;
32824;SDS011;51060;42.640;24.356;2023-10-31T08:34:55;10.95;;;7.10;;
32824;SDS011;51060;42.640;24.356;2023-10-31T08:37:21;11.13;;;7.55;;
32824;SDS011;51060;42.640;24.356;2023-10-31T08:39:47;10.20;;;5.70;;
32824;SDS011;51060;42.640;24.356;2023-10-31T08:42:12;6.95;;;4.40;;
32824;SDS011;51060;42.640;24.356;2023-10-31T08:44:39;4.15;;;2.83;;
32824;SDS011;51060;42.640;24.356;2023-10-31T08:47:05;4.13;;;3.13;;
32824;SDS011;51060;42.640;24.356;2023-10-31T08:49:31;5.20;;;3.13;;
32824;SDS011;51060;42.640;24.356;2023-10-31T08:51:57;5.40;;;2.72;;
32824;SDS011;51060;42.640;24.356;2023-10-31T08:54:22;3.97;;;2.25;;
32824;SDS011;51060;42.640;24.356;2023-10-31T08:56:48;3.83;;;2.17;;
32824;SDS011;51060;42.640;24.356;2023-10-31T08:59:13;7.90;;;1.92;;
32824;SDS011;51060;42.640;24.356;2023-10-31T09:01:39;4.07;;;1.73;;
32824;SDS011;51060;42.640;24.356;2023-10-31T09:04:04;6.50;;;2.10;;
32824;SDS011;51060;42.640;24.356;2023-10-31T09:06:31;3.50;;;1.73;;
32824;SDS011;51060;42.640;24.356;2023-10-31T09:08:56;2.35;;;1.52;;
32824;SDS011;51060;42.640;24.356;2023-10-31T09:11:22;2.20;;;1.40;;
32824;SDS011;51060;42.640;24.356;2023-10-31T09:13:47;3.42;;;1.75;;
32824;SDS011;51060;42.640;24.356;2023-10-31T09:16:13;3.05;;;1.90;;
32824;SDS011;51060;42.640;24.356;2023-10-31T09:18:39;3.72;;;2.33;;
32824;SDS011;51060;42.640;24.356;2023-10-31T09:21:04;6.47;;;1.95;;
32824;SDS011;51060;42.640;24.356;2023-10-31T09:23:30;2.38;;;1.25;;
32824;SDS011;51060;42.640;24.356;2023-10-31T09:25:55;1.77;;;1.02;;
32824;SDS011;51060;42.640;24.356;2023-10-31T09:28:22;3.03;;;1.15;;
32824;SDS011;51060;42.640;24.356;2023-10-31T09:30:47;3.83;;;1.45;;
32824;SDS011;51060;42.640;24.356;2023-10-31T09:33:13;2.45;;;1.20;;
32824;SDS011;51060;42.640;24.356;2023-10-31T09:35:39;3.50;;;1.50;;
32824;SDS011;51060;42.640;24.356;2023-10-31T09:38:05;4.40;;;1.90;;
32824;SDS011;51060;42.640;24.356;2023-10-31T09:40:30;2.60;;;1.50;;
32824;SDS011;51060;42.640;24.356;2023-10-31T09:42:56;3.00;;;1.30;;
32824;SDS011;51060;42.640;24.356;2023-10-31T09:45:22;4.82;;;1.40;;
32824;SDS011;51060;42.640;24.356;2023-10-31T09:47:48;2.67;;;1.70;;
32824;SDS011;51060;42.640;24.356;2023-10-31T09:50:13;2.00;;;1.13;;
32824;SDS011;51060;42.640;24.356;2023-10-31T09:52:39;2.20;;;1.40;;
32824;SDS011;51060;42.640;24.356;2023-10-31T09:55:08;2.83;;;1.45;;
32824;SDS011;51060;42.640;24.356;2023-10-31T09:57:33;2.10;;;1.30;;
32824;SDS011;51060;42.640;24.356;2023-10-31T09:59:59;3.83;;;1.60;;
32824;SDS011;51060;42.640;24.356;2023-10-31T10:02:25;2.80;;;1.48;;
32824;SDS011;51060;42.640;24.356;2023-10-31T10:04:50;3.90;;;1.30;;
32824;SDS011;51060;42.640;24.356;2023-10-31T10:07:16;2.13;;;1.10;;
32824;SDS011;51060;42.640;24.356;2023-10-31T10:09:42;2.92;;;1.90;;
32824;SDS011;51060;42.640;24.356;2023-10-31T10:12:08;4.50;;;1.67;;
32824;SDS011;51060;42.640;24.356;2023-10-31T10:14:40;3.50;;;1.50;;
32824;SDS011;51060;42.640;24.356;2023-10-31T10:17:24;5.03;;;1.73;;
32824;SDS011;51060;42.640;24.356;2023-10-31T10:20:09;2.15;;;1.60;;
32824;SDS011;51060;42.640;24.356;2023-10-31T10:22:37;3.92;;;1.85;;
32824;SDS011;51060;42.640;24.356;2023-10-31T10:25:07;3.55;;;1.92;;
32824;SDS011;51060;42.640;24.356;2023-10-31T10:27:33;3.13;;;1.70;;
32824;SDS011;51060;42.640;24.356;2023-10-31T10:29:59;3.90;;;1.80;;
32824;SDS011;51060;42.640;24.356;2023-10-31T10:32:25;2.45;;;1.50;;
32824;SDS011;51060;42.640;24.356;2023-10-31T10:34:50;1.80;;;1.40;;
32824;SDS011;51060;42.640;24.356;2023-10-31T10:37:16;5.95;;;4.53;;
32824;SDS011;51060;42.640;24.356;2023-10-31T10:39:43;6.30;;;3.30;;
32824;SDS011;51060;42.640;24.356;2023-10-31T10:42:14;3.45;;;1.90;;
32824;SDS011;51060;42.640;24.356;2023-10-31T10:44:43;6.07;;;2.97;;
32824;SDS011;51060;42.640;24.356;2023-10-31T10:47:09;4.35;;;1.70;;
32824;SDS011;51060;42.640;24.356;2023-10-31T10:49:37;3.92;;;1.90;;
32824;SDS011;51060;42.640;24.356;2023-10-31T10:55:13;5.05;;;1.70;;
32824;SDS011;51060;42.640;24.356;2023-10-31T11:00:15;4.30;;;1.73;;
32824;SDS011;51060;42.640;24.356;2023-10-31T11:02:41;4.35;;;1.75;;
32824;SDS011;51060;42.640;24.356;2023-10-31T11:05:08;5.03;;;2.40;;
32824;SDS011;51060;42.640;24.356;2023-10-31T11:07:35;4.93;;;1.63;;
32824;SDS011;51060;42.640;24.356;2023-10-31T11:10:02;4.03;;;2.30;;
32824;SDS011;51060;42.640;24.356;2023-10-31T11:12:30;5.25;;;2.10;;
32824;SDS011;51060;42.640;24.356;2023-10-31T11:14:57;5.15;;;2.25;;
32824;SDS011;51060;42.640;24.356;2023-10-31T11:17:35;6.25;;;2.65;;
32824;SDS011;51060;42.640;24.356;2023-10-31T11:20:03;4.45;;;2.35;;
32824;SDS011;51060;42.640;24.356;2023-10-31T11:22:39;5.72;;;2.10;;
32824;SDS011;51060;42.640;24.356;2023-10-31T11:25:09;4.28;;;2.40;;
32824;SDS011;51060;42.640;24.356;2023-10-31T11:27:36;7.47;;;3.03;;
32824;SDS011;51060;42.640;24.356;2023-10-31T11:30:15;3.50;;;2.20;;
32824;SDS011;51060;42.640;24.356;2023-10-31T11:32:55;3.92;;;2.17;;
32824;SDS011;51060;42.640;24.356;2023-10-31T11:35:23;3.15;;;2.00;;
32824;SDS011;51060;42.640;24.356;2023-10-31T11:37:49;4.63;;;2.10;;
32824;SDS011;51060;42.640;24.356;2023-10-31T11:40:30;4.70;;;1.92;;
32824;SDS011;51060;42.640;24.356;2023-10-31T11:42:56;3.63;;;1.73;;
32824;SDS011;51060;42.640;24.356;2023-10-31T11:45:26;7.90;;;2.70;;
32824;SDS011;51060;42.640;24.356;2023-10-31T11:48:45;7.85;;;3.45;;
32824;SDS011;51060;42.640;24.356;2023-10-31T11:51:12;5.43;;;3.58;;
32824;SDS011;51060;42.640;24.356;2023-10-31T11:53:38;4.95;;;2.90;;
32824;SDS011;51060;42.640;24.356;2023-10-31T11:56:04;5.72;;;2.90;;
32824;SDS011;51060;42.640;24.356;2023-10-31T11:58:30;7.32;;;2.40;;
32824;SDS011;51060;42.640;24.356;2023-10-31T12:01:05;3.15;;;2.25;;
32824;SDS011;51060;42.640;24.356;2023-10-31T12:06:08;8.27;;;2.45;;
32824;SDS011;51060;42.640;24.356;2023-10-31T12:08:38;4.13;;;2.35;;
32824;SDS011;51060;42.640;24.356;2023-10-31T12:11:05;4.53;;;2.47;;
32824;SDS011;51060;42.640;24.356;2023-10-31T12:13:36;5.32;;;2.35;;
32824;SDS011;51060;42.640;24.356;2023-10-31T12:16:03;4.50;;;2.70;;
32824;SDS011;51060;42.640;24.356;2023-10-31T12:18:31;3.80;;;1.77;;
32824;SDS011;51060;42.640;24.356;2023-10-31T12:20:56;3.92;;;2.05;;
32824;SDS011;51060;42.640;24.356;2023-10-31T12:23:22;5.05;;;2.72;;
32824;SDS011;51060;42.640;24.356;2023-10-31T12:25:48;5.55;;;2.80;;
32824;SDS011;51060;42.640;24.356;2023-10-31T12:28:21;8.18;;;4.65;;
32824;SDS011;51060;42.640;24.356;2023-10-31T12:30:49;4.60;;;2.50;;
32824;SDS011;51060;42.640;24.356;2023-10-31T12:33:16;3.88;;;2.00;;
32824;SDS011;51060;42.640;24.356;2023-10-31T12:35:42;3.30;;;2.53;;
32824;SDS011;51060;42.640;24.356;2023-10-31T12:38:12;3.78;;;2.25;;
32824;SDS011;51060;42.640;24.356;2023-10-31T12:40:39;3.75;;;1.95;;
32824;SDS011;51060;42.640;24.356;2023-10-31T12:43:06;3.95;;;2.10;;
32824;SDS011;51060;42.640;24.356;2023-10-31T12:45:31;4.15;;;2.25;;
32824;SDS011;51060;42.640;24.356;2023-10-31T12:48:15;3.70;;;2.00;;
32824;SDS011;51060;42.640;24.356;2023-10-31T12:50:40;4.35;;;2.00;;
32824;SDS011;51060;42.640;24.356;2023-10-31T12:53:07;4.40;;;1.63;;
32824;SDS011;51060;42.640;24.356;2023-10-31T12:55:40;2.50;;;1.63;;
32824;SDS011;51060;42.640;24.356;2023-10-31T12:58:06;4.15;;;1.80;;
32824;SDS011;51060;42.640;24.356;2023-10-31T13:00:35;3.75;;;1.85;;
32824;SDS011;51060;42.640;24.356;2023-10-31T13:03:05;4.05;;;2.33;;
32824;SDS011;51060;42.640;24.356;2023-10-31T13:05:33;4.80;;;2.33;;
32824;SDS011;51060;42.640;24.356;2023-10-31T13:07:59;3.92;;;2.15;;
32824;SDS011;51060;42.640;24.356;2023-10-31T13:10:26;3.97;;;2.25;;
32824;SDS011;51060;42.640;24.356;2023-10-31T13:12:57;5.20;;;2.60;;
32824;SDS011;51060;42.640;24.356;2023-10-31T13:15:23;5.40;;;2.20;;
32824;SDS011;51060;42.640;24.356;2023-10-31T13:17:49;7.47;;;2.47;;
32824;SDS011;51060;42.640;24.356;2023-10-31T13:20:15;5.75;;;2.80;;
32824;SDS011;51060;42.640;24.356;2023-10-31T13:22:43;7.20;;;3.25;;
32824;SDS011;51060;42.640;24.356;2023-10-31T13:25:09;7.15;;;3.50;;
32824;SDS011;51060;42.640;24.356;2023-10-31T13:27:37;3.53;;;2.40;;
32824;SDS011;51060;42.640;24.356;2023-10-31T13:30:04;6.07;;;2.70;;
32824;SDS011;51060;42.640;24.356;2023-10-31T13:32:30;8.48;;;2.80;;
32824;SDS011;51060;42.640;24.356;2023-10-31T13:34:56;7.88;;;4.00;;
32824;SDS011;51060;42.640;24.356;2023-10-31T13:37:22;7.18;;;3.35;;
32824;SDS011;51060;42.640;24.356;2023-10-31T13:39:48;4.78;;;2.80;;
32824;SDS011;51060;42.640;24.356;2023-10-31T13:42:15;8.02;;;2.88;;
32824;SDS011;51060;42.640;24.356;2023-10-31T13:44:41;6.40;;;2.90;;
32824;SDS011;51060;42.640;24.356;2023-10-31T13:47:07;4.60;;;2.30;;
32824;SDS011;51060;42.640;24.356;2023-10-31T13:49:32;6.38;;;3.00;;
32824;SDS011;51060;42.640;24.356;2023-10-31T13:51:58;6.25;;;3.90;;
32824;SDS011;51060;42.640;24.356;2023-10-31T13:54:24;8.35;;;3.78;;
32824;SDS011;51060;42.640;24.356;2023-10-31T13:56:50;20.88;;;10.45;;
32824;SDS011;51060;42.640;24.356;2023-10-31T13:59:15;19.15;;;9.35;;
32824;SDS011;51060;42.640;24.356;2023-10-31T14:01:41;13.45;;;7.65;;
32824;SDS011;51060;42.640;24.356;2023-10-31T14:04:07;12.57;;;6.15;;
32824;SDS011;51060;42.640;24.356;2023-10-31T14:06:33;9.68;;;7.18;;
32824;SDS011;51060;42.640;24.356;2023-10-31T14:09:00;13.20;;;8.95;;
32824;SDS011;51060;42.640;24.356;2023-10-31T14:11:30;15.05;;;9.70;;
32824;SDS011;51060;42.640;24.356;2023-10-31T14:13:56;9.35;;;6.40;;
32824;SDS011;51060;42.640;24.356;2023-10-31T14:16:31;6.43;;;3.40;;
32824;SDS011;51060;42.640;24.356;2023-10-31T14:18:57;9.98;;;5.07;;
32824;SDS011;51060;42.640;24.356;2023-10-31T14:21:22;16.50;;;9.45;;
32824;SDS011;51060;42.640;24.356;2023-10-31T14:23:48;14.40;;;8.07;;
32824;SDS011;51060;42.640;24.356;2023-10-31T14:26:22;7.32;;;4.93;;